sensor_id;sensor_type;location;lat;lon;timestamp;temperature;humidity
43015;DHT22;28637;50.554;7.032;2023-04-01T00:02:59;9.20;99.90
43015;DHT22;28637;50.554;7.032;2023-04-01T00:08:01;9.20;99.90
43015;DHT22;28637;50.554;7.032;2023-04-01T00:13:01;9.20;99.90
43015;DHT22;28637;50.554;7.032;2023-04-01T00:18:02;9.20;99.90
43015;DHT22;28637;50.554;7.032;2023-04-01T00:23:03;9.20;99.90
43015;DHT22;28637;50.554;7.032;2023-04-01T00:28:05;9.20;99.90
43015;DHT22;28637;50.554;7.032;2023-04-01T00:33:06;9.20;99.90
43015;DHT22;28637;50.554;7.032;2023-04-01T00:38:07;9.10;99.90
43015;DHT22;28637;50.554;7.032;2023-04-01T00:43:19;9.10;99.90
43015;DHT22;28637;50.554;7.032;2023-04-01T00:48:23;9.10;99.90
43015;DHT22;28637;50.554;7.032;2023-04-01T00:53:25;9.10;99.90
43015;DHT22;28637;50.554;7.032;2023-04-01T00:58:29;9.10;99.90
43015;DHT22;28637;50.554;7.032;2023-04-01T01:03:32;9.10;99.90
43015;DHT22;28637;50.554;7.032;2023-04-01T01:30:16;8.90;99.90
43015;DHT22;28637;50.554;7.032;2023-04-01T01:35:38;8.90;99.90
43015;DHT22;28637;50.554;7.032;2023-04-01T01:40:43;8.90;99.90
43015;DHT22;28637;50.554;7.032;2023-04-01T01:45:59;8.90;99.90
43015;DHT22;28637;50.554;7.032;2023-04-01T01:51:01;8.90;99.90
43015;DHT22;28637;50.554;7.032;2023-04-01T01:56:03;8.90;99.90
43015;DHT22;28637;50.554;7.032;2023-04-01T02:01:05;8.90;99.90
43015;DHT22;28637;50.554;7.032;2023-04-01T02:06:09;9.00;99.90
43015;DHT22;28637;50.554;7.032;2023-04-01T02:11:13;8.90;99.90
43015;DHT22;28637;50.554;7.032;2023-04-01T02:16:20;8.90;99.90
43015;DHT22;28637;50.554;7.032;2023-04-01T02:21:24;8.90;99.90
43015;DHT22;28637;50.554;7.032;2023-04-01T02:26:27;8.90;99.90
43015;DHT22;28637;50.554;7.032;2023-04-01T02:31:28;9.00;99.90
43015;DHT22;28637;50.554;7.032;2023-04-01T02:36:29;8.90;99.90
43015;DHT22;28637;50.554;7.032;2023-04-01T02:41:30;8.90;99.90
43015;DHT22;28637;50.554;7.032;2023-04-01T02:46:30;8.90;99.90
43015;DHT22;28637;50.554;7.032;2023-04-01T02:51:32;8.90;99.90
43015;DHT22;28637;50.554;7.032;2023-04-01T02:56:32;8.90;99.90
43015;DHT22;28637;50.554;7.032;2023-04-01T03:01:33;8.90;99.90
43015;DHT22;28637;50.554;7.032;2023-04-01T03:06:34;8.90;99.90
43015;DHT22;28637;50.554;7.032;2023-04-01T03:11:35;8.90;99.90
43015;DHT22;28637;50.554;7.032;2023-04-01T03:16:36;8.90;99.90
43015;DHT22;28637;50.554;7.032;2023-04-01T03:21:36;8.90;99.90
43015;DHT22;28637;50.554;7.032;2023-04-01T03:26:37;8.80;99.90
43015;DHT22;28637;50.554;7.032;2023-04-01T03:31:37;8.90;99.90
43015;DHT22;28637;50.554;7.032;2023-04-01T03:36:38;8.80;99.90
43015;DHT22;28637;50.554;7.032;2023-04-01T03:41:39;8.80;99.90
43015;DHT22;28637;50.554;7.032;2023-04-01T03:46:40;8.80;99.90
43015;DHT22;28637;50.554;7.032;2023-04-01T03:51:42;8.80;99.90
43015;DHT22;28637;50.554;7.032;2023-04-01T03:56:43;8.80;99.90
43015;DHT22;28637;50.554;7.032;2023-04-01T04:01:45;8.70;99.90
43015;DHT22;28637;50.554;7.032;2023-04-01T04:06:46;8.80;99.90
43015;DHT22;28637;50.554;7.032;2023-04-01T04:11:47;8.70;99.90
43015;DHT22;28637;50.554;7.032;2023-04-01T04:16:48;8.70;99.90
43015;DHT22;28637;50.554;7.032;2023-04-01T04:21:49;8.60;99.90
43015;DHT22;28637;50.554;7.032;2023-04-01T04:26:49;8.60;99.90
43015;DHT22;28637;50.554;7.032;2023-04-01T04:31:50;8.60;99.90
43015;DHT22;28637;50.554;7.032;2023-04-01T04:36:51;8.60;99.90
43015;DHT22;28637;50.554;7.032;2023-04-01T04:41:52;8.50;99.90
43015;DHT22;28637;50.554;7.032;2023-04-01T04:46:52;8.50;99.90
43015;DHT22;28637;50.554;7.032;2023-04-01T04:51:53;8.50;99.90
43015;DHT22;28637;50.554;7.032;2023-04-01T04:56:54;8.50;99.90
43015;DHT22;28637;50.554;7.032;2023-04-01T05:01:55;8.60;99.90
43015;DHT22;28637;50.554;7.032;2023-04-01T05:06:55;8.60;99.90
43015;DHT22;28637;50.554;7.032;2023-04-01T05:11:56;8.60;99.90
43015;DHT22;28637;50.554;7.032;2023-04-01T05:16:57;8.60;99.90
43015;DHT22;28637;50.554;7.032;2023-04-01T05:21:57;8.60;99.90
43015;DHT22;28637;50.554;7.032;2023-04-01T05:26:58;8.50;99.90
43015;DHT22;28637;50.554;7.032;2023-04-01T05:31:59;8.60;99.90
43015;DHT22;28637;50.554;7.032;2023-04-01T05:37:00;8.60;99.90
43015;DHT22;28637;50.554;7.032;2023-04-01T05:42:01;8.60;99.90
43015;DHT22;28637;50.554;7.032;2023-04-01T05:47:03;8.60;99.90
43015;DHT22;28637;50.554;7.032;2023-04-01T05:52:04;8.70;99.90
43015;DHT22;28637;50.554;7.032;2023-04-01T05:57:05;8.80;99.90
43015;DHT22;28637;50.554;7.032;2023-04-01T06:02:05;8.80;99.90
43015;DHT22;28637;50.554;7.032;2023-04-01T06:07:17;8.80;99.90
43015;DHT22;28637;50.554;7.032;2023-04-01T06:13:21;8.80;99.90
43015;DHT22;28637;50.554;7.032;2023-04-01T06:39:48;9.20;99.90
43015;DHT22;28637;50.554;7.032;2023-04-01T06:50:19;9.30;99.90
43015;DHT22;28637;50.554;7.032;2023-04-01T06:55:42;9.30;99.90
43015;DHT22;28637;50.554;7.032;2023-04-01T07:00:46;9.30;99.90
43015;DHT22;28637;50.554;7.032;2023-04-01T07:05:48;9.40;99.90
43015;DHT22;28637;50.554;7.032;2023-04-01T07:10:56;9.50;99.90
43015;DHT22;28637;50.554;7.032;2023-04-01T07:16:14;9.60;99.90
43015;DHT22;28637;50.554;7.032;2023-04-01T07:21:29;9.80;99.90
43015;DHT22;28637;50.554;7.032;2023-04-01T07:26:31;9.90;99.90
43015;DHT22;28637;50.554;7.032;2023-04-01T07:37:15;10.10;99.90
43015;DHT22;28637;50.554;7.032;2023-04-01T07:53:08;10.30;99.90
43015;DHT22;28637;50.554;7.032;2023-04-01T08:08:20;10.50;99.90
43015;DHT22;28637;50.554;7.032;2023-04-01T08:23:52;10.80;99.90
43015;DHT22;28637;50.554;7.032;2023-04-01T08:34:19;10.80;99.90
43015;DHT22;28637;50.554;7.032;2023-04-01T08:39:32;10.90;99.90
43015;DHT22;28637;50.554;7.032;2023-04-01T09:06:33;11.20;99.90
43015;DHT22;28637;50.554;7.032;2023-04-01T09:17:26;11.60;99.90
43015;DHT22;28637;50.554;7.032;2023-04-01T09:22:47;11.70;99.90
43015;DHT22;28637;50.554;7.032;2023-04-01T09:28:09;11.60;99.90
43015;DHT22;28637;50.554;7.032;2023-04-01T09:39:16;11.70;99.90
43015;DHT22;28637;50.554;7.032;2023-04-01T09:44:31;11.50;99.90
43015;DHT22;28637;50.554;7.032;2023-04-01T09:49:56;11.60;99.90
43015;DHT22;28637;50.554;7.032;2023-04-01T09:55:18;11.70;99.90
43015;DHT22;28637;50.554;7.032;2023-04-01T10:12:00;11.20;99.90
43015;DHT22;28637;50.554;7.032;2023-04-01T10:22:54;11.20;99.90
43015;DHT22;28637;50.554;7.032;2023-04-01T10:28:33;11.20;99.90
43015;DHT22;28637;50.554;7.032;2023-04-01T11:33:28;12.10;99.90
43015;DHT22;28637;50.554;7.032;2023-04-01T11:49:33;11.90;99.90
43015;DHT22;28637;50.554;7.032;2023-04-01T11:55:06;11.90;99.90
43015;DHT22;28637;50.554;7.032;2023-04-01T12:00:30;12.00;99.90
43015;DHT22;28637;50.554;7.032;2023-04-01T12:05:58;12.10;99.90
43015;DHT22;28637;50.554;7.032;2023-04-01T12:11:11;12.40;99.90
43015;DHT22;28637;50.554;7.032;2023-04-01T12:16:26;12.40;99.90
43015;DHT22;28637;50.554;7.032;2023-04-01T12:21:37;12.20;99.90
43015;DHT22;28637;50.554;7.032;2023-04-01T12:37:19;12.20;99.90
43015;DHT22;28637;50.554;7.032;2023-04-01T13:10:19;11.90;99.90
43015;DHT22;28637;50.554;7.032;2023-04-01T13:25:24;12.40;99.90
43015;DHT22;28637;50.554;7.032;2023-04-01T13:30:43;12.50;99.90
43015;DHT22;28637;50.554;7.032;2023-04-01T13:47:30;12.10;99.90
43015;DHT22;28637;50.554;7.032;2023-04-01T14:14:42;12.30;99.90
43015;DHT22;28637;50.554;7.032;2023-04-01T14:25:47;12.40;99.90
43015;DHT22;28637;50.554;7.032;2023-04-01T14:31:13;12.40;99.90
43015;DHT22;28637;50.554;7.032;2023-04-01T14:36:48;12.40;99.90
43015;DHT22;28637;50.554;7.032;2023-04-01T14:42:18;12.20;99.90
43015;DHT22;28637;50.554;7.032;2023-04-01T14:52:36;12.40;99.90
43015;DHT22;28637;50.554;7.032;2023-04-01T14:57:38;12.30;99.90
43015;DHT22;28637;50.554;7.032;2023-04-01T15:03:00;12.40;99.90
43015;DHT22;28637;50.554;7.032;2023-04-01T15:08:36;12.50;99.90
43015;DHT22;28637;50.554;7.032;2023-04-01T15:46:48;11.60;99.90
43015;DHT22;28637;50.554;7.032;2023-04-01T15:52:24;11.60;99.90
43015;DHT22;28637;50.554;7.032;2023-04-01T15:58:19;11.60;99.90
43015;DHT22;28637;50.554;7.032;2023-04-01T16:03:41;11.60;99.90
43015;DHT22;28637;50.554;7.032;2023-04-01T16:09:09;11.60;99.90
43015;DHT22;28637;50.554;7.032;2023-04-01T16:19:53;11.50;99.90
43015;DHT22;28637;50.554;7.032;2023-04-01T16:25:18;11.50;99.90
43015;DHT22;28637;50.554;7.032;2023-04-01T16:35:41;11.50;99.90
43015;DHT22;28637;50.554;7.032;2023-04-01T16:41:14;11.40;99.90
43015;DHT22;28637;50.554;7.032;2023-04-01T16:57:01;11.20;99.90
43015;DHT22;28637;50.554;7.032;2023-04-01T17:02:10;11.20;99.90
43015;DHT22;28637;50.554;7.032;2023-04-01T17:12:53;10.90;99.90
43015;DHT22;28637;50.554;7.032;2023-04-01T17:18:42;10.80;99.90
43015;DHT22;28637;50.554;7.032;2023-04-01T17:23:26;10.70;99.90
43015;DHT22;28637;50.554;7.032;2023-04-01T17:50:16;10.20;99.90
43015;DHT22;28637;50.554;7.032;2023-04-01T18:00:59;10.10;99.90
43015;DHT22;28637;50.554;7.032;2023-04-01T18:06:17;10.10;99.90
43015;DHT22;28637;50.554;7.032;2023-04-01T18:11:43;10.20;99.90
43015;DHT22;28637;50.554;7.032;2023-04-01T18:27:44;9.90;99.90
43015;DHT22;28637;50.554;7.032;2023-04-01T18:33:09;9.90;99.90
43015;DHT22;28637;50.554;7.032;2023-04-01T18:38:29;9.80;99.90
43015;DHT22;28637;50.554;7.032;2023-04-01T18:49:07;9.80;99.90
43015;DHT22;28637;50.554;7.032;2023-04-01T19:05:09;10.10;99.90
43015;DHT22;28637;50.554;7.032;2023-04-01T19:10:37;10.10;99.90
43015;DHT22;28637;50.554;7.032;2023-04-01T19:20:56;9.80;99.90
43015;DHT22;28637;50.554;7.032;2023-04-01T19:26:00;9.60;99.90
43015;DHT22;28637;50.554;7.032;2023-04-01T19:57:38;9.70;99.90
43015;DHT22;28637;50.554;7.032;2023-04-01T20:08:36;9.60;99.90
43015;DHT22;28637;50.554;7.032;2023-04-01T20:13:46;9.40;99.90
43015;DHT22;28637;50.554;7.032;2023-04-01T20:18:52;9.40;99.90
43015;DHT22;28637;50.554;7.032;2023-04-01T20:24:00;9.40;99.90
43015;DHT22;28637;50.554;7.032;2023-04-01T20:35:22;9.30;99.90
43015;DHT22;28637;50.554;7.032;2023-04-01T20:40:40;9.30;99.90
43015;DHT22;28637;50.554;7.032;2023-04-01T20:51:07;9.40;99.90
43015;DHT22;28637;50.554;7.032;2023-04-01T21:13:03;9.10;99.90
43015;DHT22;28637;50.554;7.032;2023-04-01T21:18:38;9.00;99.90
43015;DHT22;28637;50.554;7.032;2023-04-01T21:24:23;9.00;99.90
43015;DHT22;28637;50.554;7.032;2023-04-01T21:35:08;8.80;99.90
43015;DHT22;28637;50.554;7.032;2023-04-01T22:12:11;8.70;99.90
43015;DHT22;28637;50.554;7.032;2023-04-01T22:22:32;8.70;99.90
43015;DHT22;28637;50.554;7.032;2023-04-01T22:43:25;8.60;99.90
43015;DHT22;28637;50.554;7.032;2023-04-01T22:48:49;8.60;99.90
43015;DHT22;28637;50.554;7.032;2023-04-01T22:54:31;8.70;99.90
43015;DHT22;28637;50.554;7.032;2023-04-01T22:59:58;8.70;99.90
43015;DHT22;28637;50.554;7.032;2023-04-01T23:05:02;8.50;99.90
43015;DHT22;28637;50.554;7.032;2023-04-01T23:10:06;8.60;99.90
43015;DHT22;28637;50.554;7.032;2023-04-01T23:15:14;8.50;99.90
43015;DHT22;28637;50.554;7.032;2023-04-01T23:25:54;8.50;99.90
43015;DHT22;28637;50.554;7.032;2023-04-01T23:30:56;8.50;99.90
43015;DHT22;28637;50.554;7.032;2023-04-01T23:36:00;8.50;99.90
43015;DHT22;28637;50.554;7.032;2023-04-01T23:41:16;8.50;99.90
43015;DHT22;28637;50.554;7.032;2023-04-01T23:46:18;8.50;99.90
43015;DHT22;28637;50.554;7.032;2023-04-01T23:51:23;8.60;99.90
43015;DHT22;28637;50.554;7.032;2023-04-01T23:56:34;8.60;99.90
